createdAt,value
2023-11-12T00:01:15.633Z,82.19
2023-11-12T00:03:42.602Z,82.18
2023-11-12T00:06:09.547Z,82.30
2023-11-12T00:08:36.488Z,82.12
2023-11-12T00:11:03.934Z,82.28
2023-11-12T00:13:31.018Z,82.07
2023-11-12T00:15:58.310Z,82.47
2023-11-12T00:18:25.204Z,82.94
2023-11-12T00:20:52.889Z,82.90
2023-11-12T00:23:22.190Z,82.96
2023-11-12T00:25:49.157Z,82.84
2023-11-12T00:28:16.057Z,82.75
2023-11-12T00:30:42.913Z,82.61
2023-11-12T00:33:10.845Z,82.69
2023-11-12T00:35:38.341Z,82.50
2023-11-12T00:38:05.609Z,82.74
2023-11-12T00:40:33.537Z,82.92
2023-11-12T00:43:00.739Z,83.22
2023-11-12T00:45:27.741Z,82.73
2023-11-12T00:47:56.604Z,83.16
2023-11-12T00:50:23.645Z,83.39
2023-11-12T00:52:50.663Z,83.20
2023-11-12T00:55:17.563Z,82.98
2023-11-12T00:57:45.157Z,82.88
2023-11-12T01:00:12.721Z,83.21
2023-11-12T01:02:39.665Z,82.82
2023-11-12T01:05:07.356Z,82.99
2023-11-12T01:07:34.330Z,82.62
2023-11-12T01:10:01.362Z,82.50
2023-11-12T01:12:28.762Z,82.53
2023-11-12T01:14:55.797Z,82.64
2023-11-12T01:17:22.861Z,83.30
2023-11-12T01:19:49.739Z,83.40
2023-11-12T01:22:17.408Z,83.50
2023-11-12T01:24:44.372Z,83.10
2023-11-12T01:27:11.281Z,83.10
2023-11-12T01:29:38.205Z,82.91
2023-11-12T01:32:05.714Z,83.10
2023-11-12T01:34:32.834Z,83.12
2023-11-12T01:37:00.364Z,83.28
2023-11-12T01:39:28.307Z,83.33
2023-11-12T01:41:55.641Z,83.09
2023-11-12T01:44:22.567Z,83.67
2023-11-12T01:46:52.698Z,83.46
2023-11-12T01:49:21.841Z,83.52
2023-11-12T01:51:51.466Z,83.29
2023-11-12T01:54:18.886Z,83.25
2023-11-12T01:56:46.787Z,83.58
2023-11-12T01:59:15.450Z,83.52
2023-11-12T02:01:43.528Z,84.00
2023-11-12T02:04:11.704Z,83.79
2023-11-12T02:06:38.727Z,83.91
2023-11-12T02:09:06.839Z,84.22
2023-11-12T02:11:33.827Z,83.73
2023-11-12T02:14:01.045Z,83.49
2023-11-12T02:16:28.801Z,84.03
2023-11-12T02:18:56.140Z,84.11
2023-11-12T02:21:25.642Z,83.95
2023-11-12T02:23:52.747Z,84.03
2023-11-12T02:26:20.195Z,84.18
2023-11-12T02:28:47.116Z,84.18
2023-11-12T02:31:14.161Z,84.01
2023-11-12T02:33:41.244Z,83.99
2023-11-12T02:36:09.148Z,84.05
2023-11-12T02:38:36.655Z,83.87
2023-11-12T02:41:03.765Z,83.97
2023-11-12T02:43:30.686Z,83.98
2023-11-12T02:45:58.232Z,83.88
2023-11-12T02:48:27.039Z,83.67
2023-11-12T02:50:54.311Z,83.81
2023-11-12T02:53:21.248Z,83.28
2023-11-12T02:55:48.130Z,83.30
2023-11-12T02:58:18.434Z,83.37
2023-11-12T03:00:45.518Z,82.98
2023-11-12T03:03:14.365Z,83.37
2023-11-12T03:05:41.601Z,83.34
2023-11-12T03:08:08.506Z,83.22
2023-11-12T03:10:36.689Z,83.64
2023-11-12T03:13:03.681Z,83.09
2023-11-12T03:15:30.721Z,83.20
2023-11-12T03:17:58.615Z,83.01
2023-11-12T03:20:25.644Z,83.29
2023-11-12T03:22:52.644Z,83.35
2023-11-12T03:25:19.519Z,83.62
2023-11-12T03:27:46.453Z,83.89
2023-11-12T03:30:14.650Z,84.19
2023-11-12T03:32:41.845Z,84.21
2023-11-12T03:35:09.825Z,83.94
2023-11-12T03:37:37.744Z,84.27
2023-11-12T03:40:05.779Z,83.97
2023-11-12T03:42:33.265Z,84.02
2023-11-12T03:45:00.212Z,84.26
2023-11-12T03:47:27.257Z,83.65
2023-11-12T03:49:54.212Z,83.77
2023-11-12T03:52:21.176Z,83.44
2023-11-12T03:54:48.150Z,83.51
2023-11-12T03:57:15.760Z,83.89
2023-11-12T03:59:42.969Z,83.98
2023-11-12T04:02:10.160Z,83.96
2023-11-12T04:04:37.327Z,83.78
2023-11-12T04:07:06.465Z,83.54
2023-11-12T04:09:33.358Z,83.84
2023-11-12T04:12:00.476Z,83.84
2023-11-12T04:14:27.364Z,83.89
2023-11-12T04:16:54.333Z,83.50
2023-11-12T04:19:21.257Z,84.13
2023-11-12T04:21:48.786Z,83.71
2023-11-12T04:24:16.064Z,83.66
2023-11-12T04:26:43.232Z,83.71
2023-11-12T04:29:10.442Z,83.62
2023-11-12T04:31:37.970Z,83.72
2023-11-12T04:34:05.200Z,84.20
2023-11-12T04:36:36.707Z,84.03
2023-11-12T04:39:04.604Z,84.03
2023-11-12T04:41:31.565Z,83.77
2023-11-12T04:43:58.689Z,83.86
2023-11-12T04:46:26.624Z,84.15
2023-11-12T04:48:53.540Z,83.92
2023-11-12T04:51:21.292Z,83.32
2023-11-12T04:53:49.446Z,83.74
2023-11-12T04:56:16.705Z,83.96
2023-11-12T04:58:43.639Z,83.54
2023-11-12T05:01:10.648Z,83.58
2023-11-12T05:03:37.688Z,83.04
2023-11-12T05:06:05.460Z,83.54
2023-11-12T05:08:32.731Z,83.48
2023-11-12T05:10:59.818Z,83.26
2023-11-12T05:13:27.248Z,83.50
2023-11-12T05:15:54.411Z,83.41
2023-11-12T05:18:22.737Z,83.42
2023-11-12T05:20:49.823Z,83.79
2023-11-12T05:23:17.816Z,83.76
2023-11-12T05:25:46.328Z,83.96
2023-11-12T05:28:13.565Z,84.43
2023-11-12T05:30:40.990Z,84.61
2023-11-12T05:33:07.958Z,84.20
2023-11-12T05:35:34.843Z,83.95
2023-11-12T05:38:01.841Z,84.17
2023-11-12T05:40:30.663Z,84.12
2023-11-12T05:42:59.101Z,84.16
2023-11-12T05:45:26.301Z,84.59
2023-11-12T05:47:53.531Z,84.62
2023-11-12T05:50:20.494Z,84.31
2023-11-12T05:52:48.752Z,84.62
2023-11-12T05:55:16.249Z,84.63
2023-11-12T05:57:43.569Z,84.88
2023-11-12T06:00:12.194Z,84.77
2023-11-12T06:02:39.748Z,84.73
2023-11-12T06:05:07.692Z,84.80
2023-11-12T06:07:34.660Z,84.86
2023-11-12T06:10:01.619Z,84.99
2023-11-12T06:12:28.614Z,85.01
2023-11-12T06:14:55.534Z,85.46
2023-11-12T06:17:22.412Z,85.49
2023-11-12T06:19:49.616Z,85.53
2023-11-12T06:22:16.952Z,85.11
2023-11-12T06:24:44.095Z,85.27
2023-11-12T06:27:12.133Z,85.10
2023-11-12T06:29:39.407Z,85.03
2023-11-12T06:32:08.165Z,85.02
2023-11-12T06:34:36.363Z,85.22
2023-11-12T06:37:04.416Z,85.14
2023-11-12T06:39:32.212Z,85.13
2023-11-12T06:41:59.325Z,85.31
2023-11-12T06:44:26.248Z,85.44
2023-11-12T06:46:53.252Z,85.80
2023-11-12T06:49:20.236Z,85.39
2023-11-12T06:51:47.232Z,85.55
2023-11-12T06:54:14.335Z,85.42
2023-11-12T06:56:41.258Z,85.35
2023-11-12T06:59:08.175Z,85.50
2023-11-12T07:01:35.394Z,85.23
2023-11-12T07:04:02.626Z,85.34
2023-11-12T07:06:29.895Z,85.37
2023-11-12T07:08:56.864Z,85.21
2023-11-12T07:11:23.829Z,85.38
2023-11-12T07:13:50.737Z,85.46
2023-11-12T07:16:19.040Z,85.18
2023-11-12T07:18:53.944Z,85.02
2023-11-12T07:21:28.343Z,85.24
2023-11-12T07:23:56.480Z,85.34
2023-11-12T07:26:25.770Z,85.07
2023-11-12T07:28:53.493Z,84.86
2023-11-12T07:31:23.333Z,84.94
2023-11-12T07:33:50.991Z,84.95
2023-11-12T07:36:18.051Z,85.28
2023-11-12T07:38:46.197Z,85.10
2023-11-12T07:41:13.203Z,84.70
2023-11-12T07:43:40.249Z,84.88
2023-11-12T07:46:07.292Z,84.42
2023-11-12T07:48:34.861Z,84.55
2023-11-12T07:51:02.029Z,84.67
2023-11-12T07:53:29.728Z,84.54
2023-11-12T07:55:56.764Z,84.45
2023-11-12T07:58:23.634Z,84.19
2023-11-12T08:00:50.569Z,84.24
2023-11-12T08:03:17.565Z,83.96
2023-11-12T08:05:44.654Z,83.90
2023-11-12T08:08:11.511Z,83.72
2023-11-12T08:10:38.617Z,83.64
2023-11-12T08:13:05.810Z,83.57
2023-11-12T08:15:32.802Z,83.73
2023-11-12T08:17:59.962Z,83.73
2023-11-12T08:20:27.046Z,83.33
2023-11-12T08:22:53.975Z,83.38
2023-11-12T08:25:20.849Z,83.60
2023-11-12T08:27:48.105Z,83.19
2023-11-12T08:30:15.375Z,82.95
2023-11-12T08:32:43.009Z,82.49
2023-11-12T08:35:10.918Z,82.29
2023-11-12T08:37:38.330Z,82.22
2023-11-12T08:40:06.524Z,82.29
2023-11-12T08:42:33.547Z,82.43
2023-11-12T08:45:01.245Z,82.52
2023-11-12T08:47:28.239Z,82.52
2023-11-12T08:49:55.203Z,82.43
2023-11-12T08:52:23.187Z,82.07
2023-11-12T08:54:52.519Z,82.08
2023-11-12T08:57:19.704Z,82.34
2023-11-12T08:59:47.591Z,82.02
2023-11-12T09:02:14.593Z,81.77
2023-11-12T09:04:41.511Z,81.42
2023-11-12T09:07:08.501Z,81.51
2023-11-12T09:09:35.558Z,81.42
2023-11-12T09:12:02.601Z,81.64
2023-11-12T09:14:29.950Z,81.82
2023-11-12T09:16:57.006Z,81.94
2023-11-12T09:19:23.874Z,81.86
2023-11-12T09:21:51.380Z,82.24
2023-11-12T09:24:18.295Z,82.55
2023-11-12T09:26:46.246Z,82.24
2023-11-12T09:29:13.133Z,82.03
2023-11-12T09:31:39.981Z,81.88
2023-11-12T09:34:07.066Z,81.70
2023-11-12T09:36:35.149Z,81.52
2023-11-12T09:39:04.970Z,81.43
2023-11-12T09:41:35.740Z,81.05
2023-11-12T09:44:05.180Z,80.96
2023-11-12T09:46:32.591Z,81.18
2023-11-12T09:48:59.915Z,81.06
2023-11-12T09:51:28.244Z,80.28
2023-11-12T09:53:56.014Z,80.42
2023-11-12T09:56:26.047Z,80.24
2023-11-12T09:58:54.633Z,79.66
2023-11-12T10:01:21.956Z,78.76
2023-11-12T10:03:50.270Z,77.87
2023-11-12T10:06:22.152Z,77.31
2023-11-12T10:08:51.747Z,76.86
2023-11-12T10:11:27.451Z,76.56
2023-11-12T10:13:56.181Z,76.60
2023-11-12T10:16:30.833Z,76.04
2023-11-12T10:19:15.802Z,75.83
2023-11-12T10:21:59.864Z,76.16
2023-11-12T10:24:29.511Z,75.80
2023-11-12T10:27:05.194Z,75.53
2023-11-12T10:29:32.674Z,75.19
2023-11-12T10:31:59.773Z,75.59
2023-11-12T10:34:28.894Z,74.99
2023-11-12T10:37:06.556Z,75.48
2023-11-12T10:40:19.878Z,75.47
2023-11-12T10:54:29.587Z,71.92
2023-11-12T10:56:56.881Z,70.99
2023-11-12T10:59:24.617Z,70.54
2023-11-12T11:01:53.225Z,71.23
2023-11-12T11:04:22.811Z,70.29
2023-11-12T11:06:49.944Z,70.23
2023-11-12T11:09:19.222Z,69.48
2023-11-12T11:11:50.414Z,69.05
2023-11-12T11:14:28.754Z,68.69
2023-11-12T11:16:55.824Z,68.82
2023-11-12T11:19:46.187Z,68.75
2023-11-12T11:22:32.559Z,68.16
2023-11-12T11:25:20.625Z,68.76
2023-11-12T11:27:48.240Z,68.40
2023-11-12T11:30:17.551Z,66.86
2023-11-12T11:32:58.811Z,66.73
2023-11-12T11:35:27.447Z,66.96
2023-11-12T11:38:11.269Z,67.13
2023-11-12T11:40:39.921Z,67.78
2023-11-12T11:43:22.687Z,68.43
2023-11-12T11:46:05.177Z,67.78
2023-11-12T11:48:48.253Z,68.11
2023-11-12T11:51:31.987Z,69.04
2023-11-12T11:54:04.880Z,69.05
2023-11-12T11:56:32.369Z,69.30
2023-11-12T11:58:59.644Z,69.09
2023-11-12T12:01:27.545Z,68.55
2023-11-12T12:04:11.157Z,68.21
2023-11-12T12:06:47.720Z,68.44
2023-11-12T12:09:18.727Z,68.48
2023-11-12T12:11:48.561Z,68.61
2023-11-12T12:14:17.628Z,68.55
2023-11-12T12:16:46.471Z,68.20
2023-11-12T12:19:20.767Z,68.62
2023-11-12T12:21:50.929Z,67.90
2023-11-12T12:24:20.573Z,66.88
2023-11-12T12:26:48.125Z,67.26
2023-11-12T12:29:17.267Z,67.77
2023-11-12T12:31:46.166Z,67.75
2023-11-12T12:34:16.421Z,67.88
2023-11-12T12:37:08.222Z,67.87
2023-11-12T12:39:52.346Z,68.23
2023-11-12T12:42:20.503Z,68.45
2023-11-12T12:44:49.656Z,68.15
2023-11-12T12:47:36.898Z,68.62
2023-11-12T12:50:26.999Z,69.17
2023-11-12T12:53:13.958Z,69.70
2023-11-12T12:55:42.424Z,70.43
2023-11-12T12:58:09.549Z,70.54
2023-11-12T13:00:37.392Z,71.06
2023-11-12T13:03:04.508Z,70.87
2023-11-12T13:05:33.096Z,71.37
2023-11-12T13:08:00.249Z,71.95
2023-11-12T13:10:28.138Z,71.93
2023-11-12T13:12:57.423Z,72.34
2023-11-12T13:15:26.787Z,72.57
2023-11-12T13:17:55.714Z,72.14
2023-11-12T13:20:26.717Z,72.70
2023-11-12T13:22:56.669Z,72.81
2023-11-12T13:25:24.407Z,73.03
2023-11-12T13:27:51.597Z,72.86
2023-11-12T13:30:20.707Z,73.24
2023-11-12T13:32:48.223Z,73.18
2023-11-12T13:35:15.553Z,72.95
2023-11-12T13:37:42.395Z,72.93
2023-11-12T13:40:15.060Z,72.51
2023-11-12T13:42:43.548Z,72.63
2023-11-12T13:45:27.904Z,72.85
2023-11-12T13:47:55.657Z,73.31
2023-11-12T13:50:27.434Z,73.51
2023-11-12T13:52:59.849Z,73.70
2023-11-12T13:55:29.259Z,73.84
2023-11-12T13:57:58.302Z,73.96
2023-11-12T14:00:31.850Z,74.07
2023-11-12T14:03:02.348Z,73.92
2023-11-12T14:05:29.816Z,73.81
2023-11-12T14:07:58.131Z,74.27
2023-11-12T14:10:26.455Z,74.23
2023-11-12T14:12:53.933Z,74.24
2023-11-12T14:15:23.668Z,74.51
2023-11-12T14:17:50.798Z,74.68
2023-11-12T14:20:22.611Z,74.41
2023-11-12T14:22:49.970Z,74.80
2023-11-12T14:25:20.535Z,74.48
2023-11-12T14:27:50.359Z,74.58
2023-11-12T14:30:19.648Z,74.57
2023-11-12T14:32:47.684Z,74.71
2023-11-12T14:35:17.823Z,75.04
2023-11-12T14:37:45.334Z,75.30
2023-11-12T14:40:13.479Z,75.33
2023-11-12T14:42:41.578Z,75.19
2023-11-12T14:45:21.139Z,75.28
2023-11-12T14:47:55.594Z,75.10
2023-11-12T14:50:23.130Z,74.64
2023-11-12T14:52:52.142Z,74.71
2023-11-12T14:55:25.288Z,74.67
2023-11-12T14:57:56.594Z,74.42
2023-11-12T15:00:29.687Z,74.11
2023-11-12T15:02:58.897Z,73.51
2023-11-12T15:05:26.913Z,73.51
2023-11-12T15:07:53.803Z,73.19
2023-11-12T15:10:22.257Z,73.04
2023-11-12T15:12:49.869Z,73.57
2023-11-12T15:15:20.390Z,73.60
2023-11-12T15:17:47.966Z,73.37
2023-11-12T15:20:16.011Z,73.34
2023-11-12T15:22:45.469Z,73.59
2023-11-12T15:25:15.044Z,73.76
2023-11-12T15:27:44.968Z,74.30
2023-11-12T15:30:13.856Z,74.60
2023-11-12T15:32:42.856Z,74.95
2023-11-12T15:35:11.317Z,75.04
2023-11-12T15:37:40.787Z,74.49
2023-11-12T15:40:19.711Z,74.57
2023-11-12T15:42:51.536Z,74.70
2023-11-12T15:45:19.784Z,74.99
2023-11-12T15:47:47.751Z,74.80
2023-11-12T15:50:15.953Z,74.68
2023-11-12T15:52:44.068Z,74.35
2023-11-12T15:55:14.246Z,74.51
2023-11-12T15:57:42.145Z,73.68
2023-11-12T16:00:14.643Z,74.26
2023-11-12T16:02:44.500Z,74.00
2023-11-12T16:05:12.568Z,73.99
2023-11-12T16:07:41.170Z,74.03
2023-11-12T16:10:11.693Z,74.44
2023-11-12T16:12:39.678Z,74.63
2023-11-12T16:15:13.618Z,74.77
2023-11-12T16:17:43.573Z,74.97
2023-11-12T16:20:13.579Z,75.12
2023-11-12T16:22:41.395Z,75.32
2023-11-12T16:25:10.178Z,75.48
2023-11-12T16:27:39.102Z,75.51
2023-11-12T16:30:09.045Z,75.50
2023-11-12T16:32:37.662Z,75.25
2023-11-12T16:35:08.541Z,75.82
2023-11-12T16:37:35.608Z,76.88
2023-11-12T16:40:02.746Z,77.55
2023-11-12T16:42:29.977Z,78.90
2023-11-12T16:44:57.925Z,79.39
2023-11-12T16:47:25.553Z,79.63
2023-11-12T16:49:59.516Z,79.51
2023-11-12T16:52:27.028Z,79.77
2023-11-12T16:54:56.041Z,79.65
2023-11-12T16:57:22.940Z,80.15
2023-11-12T16:59:49.994Z,80.28
2023-11-12T17:02:19.756Z,80.64
2023-11-12T17:04:46.767Z,80.89
2023-11-12T17:07:14.284Z,80.93
2023-11-12T17:09:43.064Z,81.44
2023-11-12T17:12:14.008Z,81.14
2023-11-12T17:14:41.931Z,80.79
2023-11-12T17:17:08.802Z,81.16
2023-11-12T17:19:36.656Z,81.23
2023-11-12T17:22:04.281Z,81.54
2023-11-12T17:24:33.300Z,81.54
2023-11-12T17:27:01.562Z,81.92
2023-11-12T17:29:28.714Z,81.79
2023-11-12T17:31:55.635Z,81.59
2023-11-12T17:34:22.709Z,81.71
2023-11-12T17:36:49.922Z,81.80
2023-11-12T17:39:17.210Z,81.67
2023-11-12T17:41:47.803Z,81.69
2023-11-12T17:44:17.195Z,81.04
2023-11-12T17:46:46.174Z,80.78
2023-11-12T17:49:13.954Z,80.58
2023-11-12T17:51:42.857Z,80.36
2023-11-12T17:54:10.460Z,79.79
2023-11-12T17:56:38.400Z,79.29
2023-11-12T17:59:06.270Z,79.50
2023-11-12T18:01:33.780Z,79.00
2023-11-12T18:04:01.236Z,79.32
2023-11-12T18:06:28.470Z,79.19
2023-11-12T18:08:55.385Z,79.00
2023-11-12T18:11:22.446Z,78.56
2023-11-12T18:13:49.574Z,78.75
2023-11-12T18:16:16.639Z,78.44
2023-11-12T18:18:43.984Z,78.31
2023-11-12T18:21:13.485Z,78.20
2023-11-12T18:23:41.559Z,77.76
2023-11-12T18:26:10.295Z,77.99
2023-11-12T18:28:38.740Z,78.22
2023-11-12T18:31:06.988Z,77.89
2023-11-12T18:33:34.301Z,78.13
2023-11-12T18:36:01.251Z,78.22
2023-11-12T18:38:28.800Z,78.48
2023-11-12T18:40:55.852Z,78.44
2023-11-12T18:43:26.147Z,78.06
2023-11-12T18:45:57.508Z,78.02
2023-11-12T18:48:25.486Z,77.91
2023-11-12T18:50:53.822Z,77.73
2023-11-12T18:53:22.653Z,78.13
2023-11-12T18:55:49.707Z,77.68
2023-11-12T18:58:19.357Z,77.72
2023-11-12T19:00:46.371Z,77.64
2023-11-12T19:03:14.192Z,77.89
2023-11-12T19:05:42.359Z,77.75
2023-11-12T19:08:14.664Z,77.82
2023-11-12T19:10:44.650Z,77.99
2023-11-12T19:13:12.310Z,77.77
2023-11-12T19:15:39.319Z,77.67
2023-11-12T19:18:07.987Z,77.53
2023-11-12T19:20:40.777Z,77.72
2023-11-12T19:23:08.196Z,77.49
2023-11-12T19:25:35.912Z,77.88
2023-11-12T19:28:06.455Z,77.70
2023-11-12T19:30:36.566Z,77.67
2023-11-12T19:33:03.913Z,77.74
2023-11-12T19:35:34.573Z,77.66
2023-11-12T19:38:06.487Z,77.76
2023-11-12T19:40:34.128Z,77.68
2023-11-12T19:43:01.073Z,77.75
2023-11-12T19:45:33.521Z,77.98
2023-11-12T19:48:00.599Z,78.35
2023-11-12T19:50:28.845Z,78.13
2023-11-12T19:52:56.394Z,78.27
2023-11-12T19:55:23.333Z,78.14
2023-11-12T19:57:56.274Z,78.06
2023-11-12T20:00:24.130Z,78.11
2023-11-12T20:02:52.112Z,77.65
2023-11-12T20:05:21.010Z,77.69
2023-11-12T20:07:48.106Z,77.61
2023-11-12T20:10:15.173Z,77.44
2023-11-12T20:12:42.250Z,77.26
2023-11-12T20:15:09.759Z,77.36
2023-11-12T20:17:37.815Z,77.67
2023-11-12T20:20:05.419Z,77.54
2023-11-12T20:22:33.690Z,77.92
2023-11-12T20:25:00.854Z,77.46
2023-11-12T20:27:28.002Z,77.59
2023-11-12T20:29:58.222Z,77.40
2023-11-12T20:32:25.579Z,77.44
2023-11-12T20:34:53.889Z,77.18
2023-11-12T20:37:21.219Z,77.49
2023-11-12T20:39:50.959Z,77.51
2023-11-12T20:42:18.052Z,77.90
2023-11-12T20:44:45.106Z,78.09
2023-11-12T20:47:13.821Z,78.45
2023-11-12T20:49:40.900Z,78.97
2023-11-12T20:52:09.806Z,79.36
2023-11-12T20:54:38.685Z,79.32
2023-11-12T20:57:07.859Z,79.91
2023-11-12T20:59:34.993Z,80.50
2023-11-12T21:02:10.288Z,80.58
2023-11-12T21:04:45.847Z,81.06
2023-11-12T21:07:14.388Z,81.15
2023-11-12T21:09:43.053Z,81.13
2023-11-12T21:12:10.676Z,81.32
2023-11-12T21:14:37.772Z,81.21
2023-11-12T21:17:05.187Z,81.35
2023-11-12T21:19:34.990Z,81.34
2023-11-12T21:22:02.374Z,81.00
2023-11-12T21:24:29.468Z,81.27
2023-11-12T21:26:57.805Z,80.80
2023-11-12T21:29:25.000Z,80.64
2023-11-12T21:31:54.656Z,79.94
2023-11-12T21:34:22.929Z,80.00
2023-11-12T21:36:51.376Z,79.84
2023-11-12T21:39:20.017Z,79.47
2023-11-12T21:41:47.924Z,79.09
2023-11-12T21:44:14.920Z,79.00
2023-11-12T21:46:43.811Z,78.33
2023-11-12T21:49:10.860Z,78.50
2023-11-12T21:51:38.523Z,78.38
2023-11-12T21:54:06.002Z,78.29
2023-11-12T21:56:32.927Z,77.77
2023-11-12T21:58:59.825Z,77.70
2023-11-12T22:01:26.825Z,77.47
2023-11-12T22:03:53.938Z,77.39
2023-11-12T22:06:20.964Z,77.51
2023-11-12T22:08:47.817Z,77.33
2023-11-12T22:11:14.743Z,77.26
2023-11-12T22:13:43.373Z,77.00
2023-11-12T22:16:10.324Z,76.78
2023-11-12T22:18:37.313Z,76.32
2023-11-12T22:21:07.123Z,76.76
2023-11-12T22:23:34.166Z,76.81
2023-11-12T22:26:01.087Z,76.23
2023-11-12T22:28:28.145Z,76.18
2023-11-12T22:30:55.032Z,76.21
2023-11-12T22:33:21.955Z,75.97
2023-11-12T22:35:48.914Z,75.91
2023-11-12T22:38:15.886Z,75.76
2023-11-12T22:40:44.331Z,76.00
2023-11-12T22:43:11.251Z,75.95
2023-11-12T22:45:38.986Z,76.01
2023-11-12T22:48:06.085Z,75.77
2023-11-12T22:50:33.328Z,75.35
2023-11-12T22:53:00.302Z,75.41
2023-11-12T22:55:27.267Z,75.49
2023-11-12T22:57:54.300Z,75.50
2023-11-12T23:00:40.764Z,75.55
2023-11-12T23:03:13.682Z,75.60
2023-11-12T23:05:42.229Z,75.11
2023-11-12T23:08:09.794Z,75.28
2023-11-12T23:10:37.553Z,75.27
2023-11-12T23:13:05.175Z,74.73
2023-11-12T23:15:32.650Z,75.25
2023-11-12T23:18:00.623Z,75.33
2023-11-12T23:20:27.644Z,74.82
2023-11-12T23:22:54.606Z,74.97
2023-11-12T23:25:21.662Z,74.95
2023-11-12T23:27:48.712Z,75.00
2023-11-12T23:30:15.725Z,75.16
2023-11-12T23:32:44.155Z,74.81
2023-11-12T23:35:12.084Z,75.04
2023-11-12T23:37:39.265Z,75.01
2023-11-12T23:40:08.539Z,74.80
2023-11-12T23:42:37.810Z,74.71
2023-11-12T23:45:07.001Z,74.49
2023-11-12T23:47:34.516Z,74.43
2023-11-12T23:50:01.944Z,74.72
2023-11-12T23:52:29.047Z,74.99
2023-11-12T23:54:55.987Z,74.98
2023-11-12T23:57:22.885Z,75.21
2023-11-12T23:59:49.787Z,75.22
